KRME/RME METAR and TAF weather

Enter ICAO airport designator
Station Type Date Time Source
KRME METAR 2020/01/26 18:53 UTC NOAA

KRME 261853Z 26005KT 10SM -RA OVC021 02/01 A2969 RMK AO2 RAB43 SLP057 P0000 T00220011


Station Type Date Time Source
KRME Decoded METAR 2020/01/26 18:53 UTC NOAA

GRIFFISS AIRFIELD, NY, United States (KRME) 43-14N 075-24W
Jan 26, 2020 - 01:53 PM EST / 2020.01.26 1853 UTC
Wind: from the W (260 degrees) at 6 MPH (5 KT):0
Visibility: 10 mile(s):0
Sky conditions: overcast
Weather: light rain
Precipitation last hour: A trace
Temperature: 36.0 F (2.2 C)
Dew Point: 34.0 F (1.1 C)
Relative Humidity: 92%
Pressure (altimeter): 29.69 in. Hg (1005 hPa)
ob: KRME 261853Z 26005KT 10SM -RA OVC021 02/01 A2969 RMK AO2 RAB43 SLP057 P0000 T00220011
cycle: 19

Station Type Date Time Source
KRME TAF 2020/01/26 18:27 UTC NOAA

TAF KRME 261724Z 2618/2718 25008KT 6SM -RASN BR OVC012
FM270300 26009KT 3SM -SHSN OVC009
TEMPO 2707/2711 1 1/2SM -SN BR OVC006
FM271600 28007KT 5SM -RASN OVC015

Example: see airport list